createdAt,value
2019-01-29T00:01:18.946Z,154.80
2019-01-29T00:03:26.408Z,135.83
2019-01-29T00:05:33.854Z,122.40
2019-01-29T00:07:41.473Z,112.93
2019-01-29T00:09:48.787Z,114.30
2019-01-29T00:11:56.290Z,116.10
2019-01-29T00:14:03.559Z,127.67
2019-01-29T00:16:11.244Z,114.57
2019-01-29T00:18:18.598Z,113.07
2019-01-29T00:20:26.106Z,105.13
2019-01-29T00:22:33.731Z,106.20
2019-01-29T00:24:41.208Z,112.20
2019-01-29T00:26:48.261Z,112.80
2019-01-29T00:28:55.442Z,114.17
2019-01-29T00:31:02.563Z,126.57
2019-01-29T00:33:09.963Z,122.67
2019-01-29T00:35:17.217Z,112.10
2019-01-29T00:37:24.260Z,115.27
2019-01-29T00:39:31.316Z,120.13
2019-01-29T00:41:38.428Z,122.13
2019-01-29T00:43:45.505Z,126.93
2019-01-29T00:45:52.657Z,114.77
2019-01-29T00:47:59.789Z,123.10
2019-01-29T00:50:08.003Z,111.77
2019-01-29T00:52:15.594Z,110.77
2019-01-29T00:54:23.212Z,113.97
2019-01-29T00:56:30.563Z,113.10
2019-01-29T00:58:37.965Z,117.60
2019-01-29T01:00:45.785Z,108.23
2019-01-29T01:02:53.140Z,105.37
2019-01-29T01:05:00.340Z,110.17
2019-01-29T01:07:07.341Z,111.60
2019-01-29T01:09:14.397Z,186.00
2019-01-29T01:11:21.443Z,201.27
2019-01-29T01:13:28.531Z,158.50
2019-01-29T01:15:35.926Z,136.10
2019-01-29T01:17:43.442Z,98.33
2019-01-29T01:19:50.929Z,96.10
2019-01-29T01:21:58.410Z,105.07
2019-01-29T01:24:05.808Z,82.90
2019-01-29T01:26:13.108Z,88.57
2019-01-29T01:28:20.437Z,90.67
2019-01-29T01:30:27.578Z,85.53
2019-01-29T01:32:34.654Z,86.70
2019-01-29T01:34:41.705Z,88.13
2019-01-29T01:36:48.743Z,89.87
2019-01-29T01:38:55.808Z,86.27
2019-01-29T01:41:02.847Z,91.33
2019-01-29T01:43:10.321Z,86.20
2019-01-29T01:45:17.360Z,86.53
2019-01-29T01:47:24.485Z,89.97
2019-01-29T01:49:32.089Z,96.47
2019-01-29T01:51:39.105Z,85.53
2019-01-29T01:53:46.164Z,85.03
2019-01-29T01:55:54.150Z,94.67
2019-01-29T01:58:01.239Z,91.50
2019-01-29T02:00:11.402Z,85.30
2019-01-29T02:02:18.475Z,81.33
2019-01-29T02:04:25.505Z,81.63
2019-01-29T02:06:32.587Z,91.23
2019-01-29T02:08:39.676Z,88.63
2019-01-29T02:10:46.746Z,81.90
2019-01-29T02:12:53.790Z,87.07
2019-01-29T02:15:00.863Z,83.53
2019-01-29T02:17:07.998Z,79.80
2019-01-29T02:19:15.108Z,84.57
2019-01-29T02:21:22.279Z,76.20
2019-01-29T02:23:29.339Z,83.43
2019-01-29T02:25:36.418Z,87.13
2019-01-29T02:27:43.511Z,76.47
2019-01-29T02:29:50.607Z,79.47
2019-01-29T02:31:57.692Z,79.40
2019-01-29T02:34:04.666Z,82.67
2019-01-29T02:36:11.887Z,88.43
2019-01-29T02:38:18.905Z,81.83
2019-01-29T02:40:30.049Z,77.27
2019-01-29T02:42:37.092Z,68.13
2019-01-29T02:44:44.152Z,72.33
2019-01-29T02:46:51.199Z,79.43
2019-01-29T02:48:58.275Z,70.97
2019-01-29T02:51:05.479Z,67.97
2019-01-29T02:53:18.036Z,73.30
2019-01-29T02:55:21.232Z,68.90
2019-01-29T02:57:28.285Z,65.43
2019-01-29T02:59:35.328Z,60.37
2019-01-29T03:01:42.364Z,71.63
2019-01-29T03:03:49.294Z,66.37
2019-01-29T03:05:56.291Z,67.37
2019-01-29T03:08:03.331Z,69.80
2019-01-29T03:10:12.770Z,69.80
2019-01-29T03:12:19.801Z,83.93
2019-01-29T03:14:26.801Z,83.97
2019-01-29T03:16:33.825Z,97.23
2019-01-29T03:18:40.871Z,117.03
2019-01-29T03:20:47.900Z,124.33
2019-01-29T03:22:54.942Z,90.93
2019-01-29T03:25:01.953Z,99.27
2019-01-29T03:27:08.991Z,85.23
2019-01-29T03:29:16.040Z,79.00
2019-01-29T03:31:23.042Z,70.20
2019-01-29T03:33:30.078Z,72.27
2019-01-29T03:35:37.166Z,72.60
2019-01-29T03:37:44.153Z,73.10
2019-01-29T03:39:51.190Z,65.60
2019-01-29T03:41:58.221Z,72.57
2019-01-29T03:44:05.566Z,74.87
2019-01-29T03:46:12.546Z,79.53
2019-01-29T03:48:19.888Z,86.40
2019-01-29T03:50:44.601Z,79.87
2019-01-29T03:52:51.631Z,78.37
2019-01-29T03:54:58.654Z,74.00
2019-01-29T03:57:05.729Z,76.77
2019-01-29T03:59:12.805Z,74.53
2019-01-29T04:01:19.772Z,71.23
2019-01-29T04:03:26.809Z,75.73
2019-01-29T04:05:33.875Z,73.73
2019-01-29T04:07:40.889Z,71.60
2019-01-29T04:09:47.860Z,75.47
2019-01-29T04:11:54.909Z,71.13
2019-01-29T04:14:02.014Z,76.13
2019-01-29T04:16:09.028Z,71.43
2019-01-29T04:18:16.057Z,66.40
2019-01-29T04:20:23.138Z,68.03
2019-01-29T04:22:30.131Z,63.73
2019-01-29T04:24:37.182Z,65.40
2019-01-29T04:26:44.213Z,66.07
2019-01-29T04:28:51.273Z,63.63
2019-01-29T04:30:58.323Z,62.77
2019-01-29T04:33:05.331Z,70.27
2019-01-29T04:35:12.376Z,70.53
2019-01-29T04:37:19.408Z,64.77
2019-01-29T04:39:26.430Z,67.00
2019-01-29T04:41:33.498Z,66.90
2019-01-29T04:43:40.499Z,69.80
2019-01-29T04:45:47.578Z,67.57
2019-01-29T04:47:54.647Z,65.27
2019-01-29T04:50:01.726Z,71.27
2019-01-29T04:52:08.780Z,68.53
2019-01-29T04:54:15.858Z,64.60
2019-01-29T04:56:22.940Z,68.67
2019-01-29T04:58:30.004Z,66.30
2019-01-29T05:00:37.136Z,79.80
2019-01-29T05:02:44.154Z,80.90
2019-01-29T05:04:51.217Z,81.40
2019-01-29T05:06:58.349Z,68.30
2019-01-29T05:09:08.807Z,70.17
2019-01-29T05:11:15.854Z,72.03
2019-01-29T05:13:22.928Z,72.63
2019-01-29T05:15:30.002Z,69.80
2019-01-29T05:17:37.064Z,60.77
2019-01-29T05:19:44.173Z,66.00
2019-01-29T05:21:51.196Z,71.93
2019-01-29T05:24:06.619Z,70.77
2019-01-29T05:26:07.080Z,74.53
2019-01-29T05:28:14.168Z,75.20
2019-01-29T05:30:26.371Z,88.83
2019-01-29T05:32:34.319Z,93.13
2019-01-29T05:34:41.390Z,79.47
2019-01-29T05:36:48.320Z,84.07
2019-01-29T05:38:55.330Z,93.60
2019-01-29T05:41:02.384Z,100.93
2019-01-29T05:43:09.444Z,88.80
2019-01-29T05:45:18.693Z,83.63
2019-01-29T05:47:25.731Z,87.87
2019-01-29T05:49:33.103Z,85.87
2019-01-29T05:51:40.664Z,82.20
2019-01-29T05:53:47.814Z,88.10
2019-01-29T05:55:55.072Z,79.33
2019-01-29T05:58:02.466Z,90.07
2019-01-29T06:00:22.904Z,79.47
2019-01-29T06:02:29.923Z,76.63
2019-01-29T06:04:36.997Z,78.50
2019-01-29T06:06:44.055Z,81.57
2019-01-29T06:08:51.076Z,83.93
2019-01-29T06:10:58.151Z,83.13
2019-01-29T06:13:05.329Z,85.47
2019-01-29T06:15:15.539Z,80.53
2019-01-29T06:17:27.483Z,84.07
2019-01-29T06:19:31.351Z,83.97
2019-01-29T06:21:38.371Z,80.40
2019-01-29T06:23:45.460Z,83.33
2019-01-29T06:25:52.517Z,80.80
2019-01-29T06:27:59.498Z,72.53
2019-01-29T06:30:08.587Z,77.73
2019-01-29T06:32:15.640Z,73.17
2019-01-29T06:34:22.843Z,82.90
2019-01-29T06:36:29.989Z,86.77
2019-01-29T06:38:37.103Z,85.37
2019-01-29T06:40:44.492Z,81.93
2019-01-29T06:42:51.603Z,86.57
2019-01-29T06:44:58.983Z,80.53
2019-01-29T06:47:06.249Z,77.27
2019-01-29T06:49:13.373Z,78.50
2019-01-29T06:51:20.457Z,82.57
2019-01-29T06:53:27.692Z,90.63
2019-01-29T06:55:35.025Z,79.07
2019-01-29T06:57:42.487Z,83.47
2019-01-29T06:59:49.893Z,86.17
2019-01-29T07:01:57.024Z,82.10
2019-01-29T07:04:03.996Z,80.67
2019-01-29T07:06:11.050Z,90.77
2019-01-29T07:08:18.095Z,82.70
2019-01-29T07:10:25.333Z,75.57
2019-01-29T07:12:32.747Z,82.57
2019-01-29T07:14:39.975Z,86.63
2019-01-29T07:16:59.965Z,78.40
2019-01-29T07:19:15.433Z,77.30
2019-01-29T07:21:22.493Z,82.83
2019-01-29T07:23:29.571Z,84.20
2019-01-29T07:25:36.528Z,85.10
2019-01-29T07:27:43.545Z,86.27
2019-01-29T07:29:50.578Z,82.10
2019-01-29T07:31:57.585Z,81.67
2019-01-29T07:34:04.592Z,87.53
2019-01-29T07:36:11.629Z,83.73
2019-01-29T07:38:18.651Z,82.27
2019-01-29T07:40:25.752Z,84.67
2019-01-29T07:42:33.347Z,83.83
2019-01-29T07:44:40.483Z,79.37
2019-01-29T07:46:47.589Z,77.87
2019-01-29T07:48:54.591Z,80.97
2019-01-29T07:51:01.699Z,77.63
2019-01-29T07:53:08.785Z,80.87
2019-01-29T07:55:16.129Z,84.60
2019-01-29T07:57:23.211Z,70.70
2019-01-29T07:59:33.243Z,74.97
2019-01-29T08:01:39.952Z,76.63
2019-01-29T08:03:47.209Z,78.63
2019-01-29T08:05:54.316Z,73.60
2019-01-29T08:08:01.392Z,65.33
2019-01-29T08:10:08.949Z,75.63
2019-01-29T08:12:16.660Z,67.13
2019-01-29T08:14:24.147Z,67.80
2019-01-29T08:16:31.570Z,65.57
2019-01-29T08:18:39.088Z,71.83
2019-01-29T08:20:46.119Z,66.77
2019-01-29T08:22:53.240Z,80.30
2019-01-29T08:25:01.862Z,82.00
2019-01-29T08:27:09.124Z,78.67
2019-01-29T08:29:16.680Z,74.47
2019-01-29T08:31:24.411Z,58.90
2019-01-29T08:33:31.782Z,68.87
2019-01-29T08:35:39.235Z,72.67
2019-01-29T08:37:46.820Z,71.13
2019-01-29T08:39:54.257Z,70.87
2019-01-29T08:42:01.513Z,70.00
2019-01-29T08:44:09.243Z,70.10
2019-01-29T08:46:16.742Z,81.13
2019-01-29T08:48:24.446Z,70.20
2019-01-29T08:50:31.748Z,62.43
2019-01-29T08:52:39.226Z,65.43
2019-01-29T08:54:46.620Z,62.73
2019-01-29T08:56:53.765Z,64.97
2019-01-29T08:59:00.968Z,62.77
2019-01-29T09:01:08.842Z,81.07
2019-01-29T09:03:16.127Z,57.10
2019-01-29T09:05:23.346Z,61.67
2019-01-29T09:07:30.727Z,58.53
2019-01-29T09:09:38.112Z,63.13
2019-01-29T09:11:45.552Z,63.13
2019-01-29T09:13:52.988Z,60.93
2019-01-29T09:16:00.397Z,68.40
2019-01-29T09:18:07.501Z,58.17
2019-01-29T09:20:15.913Z,62.77
2019-01-29T09:22:23.179Z,57.77
2019-01-29T09:24:30.269Z,60.23
2019-01-29T09:26:37.745Z,58.40
2019-01-29T09:28:45.217Z,77.73
2019-01-29T09:30:52.678Z,63.63
2019-01-29T09:33:00.175Z,59.10
2019-01-29T09:35:07.637Z,57.70
2019-01-29T09:37:15.102Z,64.90
2019-01-29T09:39:22.523Z,61.47
2019-01-29T09:41:29.964Z,60.40
2019-01-29T09:43:37.279Z,64.10
2019-01-29T09:45:44.589Z,66.67
2019-01-29T09:47:52.204Z,72.37
2019-01-29T09:49:59.552Z,61.97
2019-01-29T09:52:06.983Z,60.50
2019-01-29T09:54:14.697Z,51.03
2019-01-29T09:56:22.323Z,57.27
2019-01-29T09:58:29.759Z,54.33
2019-01-29T10:00:39.735Z,51.13
2019-01-29T10:02:47.672Z,45.83
2019-01-29T10:04:55.244Z,60.73
2019-01-29T10:07:02.382Z,77.00
2019-01-29T10:09:10.249Z,71.30
2019-01-29T10:11:17.384Z,80.80
2019-01-29T10:13:24.516Z,59.33
2019-01-29T10:15:33.811Z,43.47
2019-01-29T10:17:40.945Z,45.93
2019-01-29T10:19:47.983Z,70.30
2019-01-29T10:21:55.308Z,53.27
2019-01-29T10:24:02.975Z,49.43
2019-01-29T10:26:10.442Z,46.67
2019-01-29T10:28:17.980Z,52.23
2019-01-29T10:30:25.931Z,41.23
2019-01-29T10:32:33.271Z,38.63
2019-01-29T10:34:40.691Z,41.93
2019-01-29T10:36:48.087Z,39.03
2019-01-29T10:38:55.240Z,37.00
2019-01-29T10:41:02.466Z,39.13
2019-01-29T10:43:09.922Z,36.60
2019-01-29T10:45:18.927Z,35.87
2019-01-29T10:47:26.482Z,37.30
2019-01-29T10:49:33.720Z,30.53
2019-01-29T10:51:40.858Z,28.47
2019-01-29T10:53:47.945Z,32.50
2019-01-29T10:55:55.554Z,37.47
2019-01-29T10:58:03.143Z,35.17
2019-01-29T11:00:15.812Z,28.50
2019-01-29T11:02:23.496Z,32.23
2019-01-29T11:04:31.092Z,30.87
2019-01-29T11:06:38.504Z,25.20
2019-01-29T11:08:46.573Z,27.63
2019-01-29T11:10:54.339Z,26.23
2019-01-29T11:13:01.832Z,27.77
2019-01-29T11:15:13.679Z,30.87
2019-01-29T11:17:20.910Z,27.17
2019-01-29T11:19:28.087Z,26.83
2019-01-29T11:21:35.322Z,26.77
2019-01-29T11:23:42.434Z,26.63
2019-01-29T11:25:55.665Z,31.33
2019-01-29T11:27:58.857Z,30.13
2019-01-29T11:30:06.843Z,35.33
2019-01-29T11:32:14.123Z,30.17
2019-01-29T11:34:21.354Z,35.33
2019-01-29T11:36:28.815Z,56.57
2019-01-29T11:38:35.949Z,48.33
2019-01-29T11:40:43.513Z,42.57
2019-01-29T11:42:51.137Z,36.50
2019-01-29T11:44:58.530Z,45.17
2019-01-29T11:47:06.592Z,45.77
2019-01-29T11:49:14.332Z,49.30
2019-01-29T11:51:21.524Z,63.30
2019-01-29T11:53:28.960Z,62.47
2019-01-29T11:55:36.194Z,54.00
2019-01-29T11:57:43.525Z,65.67
2019-01-29T11:59:51.013Z,69.10
2019-01-29T12:01:58.442Z,45.03
2019-01-29T12:04:06.380Z,52.47
2019-01-29T12:06:13.668Z,60.27
2019-01-29T12:08:21.151Z,44.80
2019-01-29T12:10:28.373Z,58.63
2019-01-29T12:12:35.826Z,39.77
2019-01-29T12:14:43.349Z,36.37
2019-01-29T12:16:50.822Z,44.87
2019-01-29T12:18:58.379Z,43.43
2019-01-29T12:21:05.784Z,50.93
2019-01-29T12:23:12.851Z,80.00
2019-01-29T12:25:19.961Z,75.90
2019-01-29T12:27:27.128Z,93.67
2019-01-29T12:29:34.303Z,57.07
2019-01-29T12:31:41.610Z,49.90
2019-01-29T12:33:48.810Z,54.67
2019-01-29T12:35:55.921Z,59.03
2019-01-29T12:38:05.566Z,59.47
2019-01-29T12:40:12.656Z,43.77
2019-01-29T12:42:19.908Z,63.60
2019-01-29T12:44:27.129Z,57.27
2019-01-29T12:46:34.386Z,43.00
2019-01-29T12:48:41.502Z,56.93
2019-01-29T12:50:58.410Z,56.57
2019-01-29T12:53:27.168Z,67.10
2019-01-29T12:55:34.263Z,42.00
2019-01-29T12:57:41.517Z,56.97
2019-01-29T12:59:48.648Z,38.20
2019-01-29T13:01:55.774Z,35.30
2019-01-29T13:04:03.833Z,41.97
2019-01-29T13:06:11.503Z,31.53
2019-01-29T13:08:19.777Z,31.23
2019-01-29T13:10:28.642Z,47.93
2019-01-29T13:12:36.540Z,28.90
2019-01-29T13:14:43.833Z,76.83
2019-01-29T13:16:51.053Z,54.80
2019-01-29T13:18:58.386Z,95.07
2019-01-29T13:21:05.567Z,117.33
2019-01-29T13:23:12.696Z,126.50
2019-01-29T13:25:19.924Z,163.20
2019-01-29T13:27:27.083Z,181.43
2019-01-29T13:29:34.414Z,223.80
2019-01-29T13:31:41.574Z,265.90
2019-01-29T13:33:48.704Z,107.53
2019-01-29T13:35:55.913Z,224.40
2019-01-29T13:38:03.270Z,91.73
2019-01-29T13:40:11.296Z,114.10
2019-01-29T13:42:18.508Z,108.37
2019-01-29T13:44:25.716Z,101.33
2019-01-29T13:46:32.863Z,96.77
2019-01-29T13:48:40.165Z,85.20
2019-01-29T13:50:51.902Z,86.50
2019-01-29T13:52:59.030Z,131.07
2019-01-29T13:55:07.806Z,108.80
2019-01-29T13:57:14.890Z,154.17
2019-01-29T13:59:22.011Z,78.27
2019-01-29T14:01:29.252Z,43.43
2019-01-29T14:03:37.278Z,66.97
2019-01-29T14:05:44.491Z,107.97
2019-01-29T14:07:51.716Z,42.67
2019-01-29T14:09:58.880Z,86.47
2019-01-29T14:12:06.345Z,73.20
2019-01-29T14:14:13.438Z,43.03
2019-01-29T14:16:20.502Z,47.73
2019-01-29T14:18:31.037Z,50.57
2019-01-29T14:20:38.165Z,43.77
2019-01-29T14:22:45.574Z,28.57
2019-01-29T14:24:53.085Z,27.97
2019-01-29T14:27:00.586Z,29.03
2019-01-29T14:29:08.156Z,21.23
2019-01-29T14:31:15.224Z,22.57
2019-01-29T14:33:22.335Z,19.90
2019-01-29T14:35:29.508Z,17.17
2019-01-29T14:38:30.172Z,43.27
2019-01-29T14:40:37.284Z,36.13
2019-01-29T14:42:46.375Z,23.37
2019-01-29T14:44:56.114Z,23.83
2019-01-29T14:47:03.277Z,27.07
2019-01-29T14:49:10.519Z,23.57
2019-01-29T14:51:17.706Z,19.37
2019-01-29T14:53:24.906Z,18.83
2019-01-29T14:55:32.021Z,26.77
2019-01-29T14:57:41.018Z,21.77
2019-01-29T14:59:48.083Z,19.93
2019-01-29T15:01:55.244Z,16.33
2019-01-29T15:04:02.323Z,21.87
2019-01-29T15:06:09.631Z,17.40
2019-01-29T15:08:16.854Z,21.73
2019-01-29T15:10:23.979Z,16.57
2019-01-29T15:12:31.155Z,22.40
2019-01-29T15:14:38.334Z,21.03
2019-01-29T15:17:03.819Z,27.10
2019-01-29T15:19:14.499Z,21.43
2019-01-29T15:21:21.691Z,19.77
2019-01-29T15:23:28.855Z,24.10
2019-01-29T15:25:36.082Z,22.57
2019-01-29T15:27:43.165Z,29.50
2019-01-29T15:29:50.550Z,35.17
2019-01-29T15:31:57.754Z,37.20
2019-01-29T15:34:05.042Z,44.43
2019-01-29T15:36:12.215Z,35.63
2019-01-29T15:38:19.428Z,22.73
2019-01-29T15:40:26.534Z,43.17
2019-01-29T15:42:33.783Z,60.20
2019-01-29T15:44:41.038Z,29.37
2019-01-29T15:46:48.543Z,44.67
2019-01-29T15:48:55.817Z,44.80
2019-01-29T15:51:03.274Z,30.40
2019-01-29T15:53:10.793Z,27.57
2019-01-29T15:55:18.036Z,34.27
2019-01-29T15:57:25.338Z,29.30
2019-01-29T15:59:32.640Z,35.77
2019-01-29T16:01:39.980Z,26.70
2019-01-29T16:03:47.418Z,28.37
2019-01-29T16:05:54.788Z,29.40
2019-01-29T16:08:02.018Z,30.77
2019-01-29T16:10:11.871Z,63.33
2019-01-29T16:12:19.148Z,59.77
2019-01-29T16:14:26.271Z,49.10
2019-01-29T16:16:33.410Z,40.23
2019-01-29T16:18:40.537Z,40.37
2019-01-29T16:20:48.037Z,32.13
2019-01-29T16:22:55.182Z,38.73
2019-01-29T16:25:02.343Z,28.10
2019-01-29T16:27:09.455Z,30.53
2019-01-29T16:29:16.760Z,34.70
2019-01-29T16:31:23.793Z,34.37
2019-01-29T16:33:31.056Z,24.73
2019-01-29T16:35:38.322Z,23.57
2019-01-29T16:37:45.387Z,27.80
2019-01-29T16:39:52.470Z,22.37
2019-01-29T16:41:59.664Z,24.63
2019-01-29T16:44:07.539Z,26.80
2019-01-29T16:46:15.052Z,45.27
2019-01-29T16:48:22.370Z,53.23
2019-01-29T16:50:29.588Z,38.23
2019-01-29T16:52:36.706Z,36.33
2019-01-29T16:54:43.997Z,32.73
2019-01-29T16:56:51.256Z,31.00
2019-01-29T16:58:58.344Z,31.03
2019-01-29T17:01:06.023Z,34.77
2019-01-29T17:03:13.177Z,40.47
2019-01-29T17:05:20.257Z,36.83
2019-01-29T17:07:27.493Z,42.27
2019-01-29T17:09:35.068Z,35.87
2019-01-29T17:11:42.219Z,40.27
2019-01-29T17:13:49.742Z,44.63
2019-01-29T17:15:57.254Z,52.00
2019-01-29T17:18:04.588Z,51.47
2019-01-29T17:20:17.065Z,55.27
2019-01-29T17:22:24.234Z,39.57
2019-01-29T17:24:31.566Z,41.43
2019-01-29T17:26:38.638Z,52.83
2019-01-29T17:28:45.879Z,49.40
2019-01-29T17:30:53.049Z,43.17
2019-01-29T17:33:00.458Z,58.17
2019-01-29T17:35:07.812Z,61.60
2019-01-29T17:37:15.139Z,58.57
2019-01-29T17:39:22.529Z,39.57
2019-01-29T17:41:29.642Z,39.43
2019-01-29T17:43:37.029Z,34.60
2019-01-29T17:45:46.996Z,46.37
2019-01-29T17:47:54.263Z,43.87
2019-01-29T17:50:01.557Z,43.80
2019-01-29T17:52:08.729Z,40.20
2019-01-29T17:54:16.001Z,43.50
2019-01-29T17:56:23.332Z,49.23
2019-01-29T17:58:30.631Z,49.40
2019-01-29T18:00:39.212Z,38.60
2019-01-29T18:02:46.857Z,41.00
2019-01-29T18:04:54.046Z,38.03
2019-01-29T18:07:01.211Z,38.70
2019-01-29T18:09:10.840Z,41.17
2019-01-29T18:11:18.015Z,37.00
2019-01-29T18:13:25.177Z,34.70
2019-01-29T18:15:32.645Z,39.30
2019-01-29T18:17:40.045Z,36.77
2019-01-29T18:19:47.451Z,33.03
2019-01-29T18:21:57.149Z,34.20
2019-01-29T18:24:04.387Z,32.73
2019-01-29T18:26:11.587Z,35.20
2019-01-29T18:28:18.740Z,39.83
2019-01-29T18:30:29.775Z,35.47
2019-01-29T18:32:36.901Z,38.80
2019-01-29T18:34:44.365Z,35.60
2019-01-29T18:36:51.606Z,51.70
2019-01-29T18:38:59.095Z,56.87
2019-01-29T18:41:06.495Z,67.53
2019-01-29T18:43:13.869Z,57.67
2019-01-29T18:45:21.093Z,44.37
2019-01-29T18:47:28.351Z,62.07
2019-01-29T18:49:35.911Z,57.10
2019-01-29T18:51:43.184Z,77.70
2019-01-29T18:53:50.636Z,64.60
2019-01-29T18:55:58.075Z,50.90
2019-01-29T18:58:11.664Z,49.57
2019-01-29T19:00:21.137Z,75.17
2019-01-29T19:02:28.420Z,95.37
2019-01-29T19:04:35.850Z,62.37
2019-01-29T19:06:43.414Z,65.37
2019-01-29T19:08:50.784Z,55.63
2019-01-29T19:10:58.020Z,48.00
2019-01-29T19:13:05.516Z,32.03
2019-01-29T19:15:22.074Z,42.30
2019-01-29T19:17:29.286Z,41.20
2019-01-29T19:19:36.633Z,44.70
2019-01-29T19:21:44.128Z,43.77
2019-01-29T19:23:51.442Z,45.37
2019-01-29T19:25:59.224Z,41.23
2019-01-29T19:28:06.606Z,52.67
2019-01-29T19:30:24.187Z,48.60
2019-01-29T19:32:31.750Z,52.00
2019-01-29T19:34:39.154Z,36.90
2019-01-29T19:36:46.416Z,31.40
2019-01-29T19:38:53.650Z,33.20
2019-01-29T19:41:00.960Z,52.40
2019-01-29T19:43:08.212Z,117.53
2019-01-29T19:45:19.942Z,88.30
2019-01-29T19:47:27.553Z,74.83
2019-01-29T19:49:34.639Z,52.03
2019-01-29T19:51:42.885Z,48.53
2019-01-29T19:53:50.161Z,68.33
2019-01-29T19:55:57.287Z,91.30
2019-01-29T19:58:09.107Z,77.57
2019-01-29T20:00:21.279Z,85.67
2019-01-29T20:02:28.494Z,83.37
2019-01-29T20:04:35.652Z,80.13
2019-01-29T20:06:42.797Z,87.10
2019-01-29T20:08:50.002Z,97.13
2019-01-29T20:10:57.106Z,95.80
2019-01-29T20:13:04.191Z,82.83
2019-01-29T20:15:13.695Z,126.57
2019-01-29T20:17:21.084Z,89.00
2019-01-29T20:19:28.536Z,97.30
2019-01-29T20:21:35.848Z,94.80
2019-01-29T20:23:42.992Z,75.40
2019-01-29T20:25:50.074Z,84.70
2019-01-29T20:28:15.114Z,42.13
2019-01-29T20:30:26.027Z,44.47
2019-01-29T20:32:33.269Z,45.30
2019-01-29T20:34:40.593Z,53.97
2019-01-29T20:36:47.855Z,45.97
2019-01-29T20:38:54.862Z,42.57
2019-01-29T20:41:02.017Z,61.87
2019-01-29T20:43:16.886Z,60.50
2019-01-29T20:45:30.118Z,159.47
2019-01-29T20:47:40.917Z,111.27
2019-01-29T20:49:48.891Z,64.80
2019-01-29T20:55:03.667Z,57.13
2019-01-29T21:00:24.734Z,43.57
2019-01-29T21:02:50.282Z,35.90
2019-01-29T21:05:28.493Z,42.33
2019-01-29T21:07:47.357Z,43.73
2019-01-29T21:10:07.911Z,39.17
2019-01-29T21:12:29.113Z,36.03
2019-01-29T21:14:48.097Z,82.80
2019-01-29T21:17:27.019Z,94.27
2019-01-29T21:19:44.469Z,75.13
2019-01-29T21:22:00.852Z,55.27
2019-01-29T21:24:08.056Z,47.20
2019-01-29T21:26:15.306Z,53.67
2019-01-29T21:28:22.583Z,60.47
2019-01-29T21:30:32.865Z,43.23
2019-01-29T21:32:39.973Z,41.60
2019-01-29T21:34:47.165Z,38.17
2019-01-29T21:36:54.408Z,40.97
2019-01-29T21:39:01.436Z,40.73
2019-01-29T21:41:08.676Z,47.17
2019-01-29T21:43:15.831Z,41.60
2019-01-29T21:45:23.477Z,47.37
2019-01-29T21:47:30.730Z,67.70
2019-01-29T21:49:37.940Z,73.50
2019-01-29T21:51:45.133Z,69.77
2019-01-29T21:53:52.352Z,51.87
2019-01-29T21:55:59.524Z,43.23
2019-01-29T21:58:07.406Z,37.93
2019-01-29T22:00:31.065Z,41.37
2019-01-29T22:02:38.133Z,47.07
2019-01-29T22:04:45.173Z,59.47
2019-01-29T22:06:52.263Z,80.77
2019-01-29T22:08:59.522Z,88.50
2019-01-29T22:11:06.652Z,94.47
2019-01-29T22:13:14.969Z,83.40
2019-01-29T22:15:22.454Z,100.23
2019-01-29T22:17:29.799Z,115.57
2019-01-29T22:19:36.933Z,101.77
2019-01-29T22:21:44.212Z,91.93
2019-01-29T22:23:51.494Z,66.37
2019-01-29T22:25:58.607Z,112.13
2019-01-29T22:28:06.658Z,125.90
2019-01-29T22:30:27.003Z,107.10
2019-01-29T22:32:34.139Z,97.47
2019-01-29T22:34:41.295Z,57.03
2019-01-29T22:36:48.430Z,85.20
2019-01-29T22:38:55.593Z,85.87
2019-01-29T22:41:02.732Z,91.80
2019-01-29T22:43:10.400Z,93.90
2019-01-29T22:45:18.170Z,104.00
2019-01-29T22:47:25.263Z,104.27
2019-01-29T22:49:32.484Z,86.93
2019-01-29T22:51:39.874Z,77.17
2019-01-29T22:53:47.085Z,60.23
2019-01-29T22:55:54.181Z,54.10
2019-01-29T22:58:01.227Z,54.67
2019-01-29T23:00:58.545Z,52.60
2019-01-29T23:03:05.709Z,49.53
2019-01-29T23:05:12.894Z,48.13
2019-01-29T23:07:33.134Z,61.53
2019-01-29T23:09:40.265Z,61.47
2019-01-29T23:11:47.340Z,57.73
2019-01-29T23:13:54.500Z,67.47
2019-01-29T23:16:01.616Z,66.07
2019-01-29T23:18:08.656Z,67.67
2019-01-29T23:20:15.997Z,78.10
2019-01-29T23:22:23.130Z,60.70
2019-01-29T23:24:30.157Z,56.03
2019-01-29T23:26:37.197Z,62.87
2019-01-29T23:28:44.370Z,64.50
2019-01-29T23:30:51.626Z,64.93
2019-01-29T23:32:58.614Z,70.30
2019-01-29T23:35:06.467Z,73.97
2019-01-29T23:37:13.543Z,88.83
2019-01-29T23:39:20.565Z,83.93
2019-01-29T23:41:27.588Z,95.90
2019-01-29T23:43:34.897Z,98.93
2019-01-29T23:45:41.991Z,107.97
2019-01-29T23:47:51.010Z,113.63
2019-01-29T23:49:58.088Z,99.37
2019-01-29T23:52:05.245Z,98.37
2019-01-29T23:54:12.357Z,87.47
2019-01-29T23:56:19.536Z,68.47
2019-01-29T23:58:26.485Z,62.70
